Loch Alpine, Michigan
Current Conditions -  °F | °C
As of 1:42 AM on Tuesday 21 Oct 2014 (Local Time) from KARB Reporting Station
Overcast Overcast  
Wind Chill: 46°   Ceiling: 6000
Heat Index: 49°   Visibility: 10mi
Dew Point: 42°   Wind: 7mph
Humidity: 77%   Direction: 340°NNW
Pressure: 29.88"   Gusts: NA
Location:  42.2601°N, 83.8448°W
Report Text: KARB 210542Z AUTO 34006KT 10SM SCT023 OVC060 09/06 A2988 RMK AO2 T00940056
Loading
Personal Weather Stations






























Interactive Weather Map
Tropical Storm Tracking
New forecast layout! Learn more

10-Day Weather Forecast

Advertisements
Track Severe Weather on mobile